CheckWX is a tool to help pilots better visualize weather data.  It is not intended as a substitute for an official pre-flight weather briefing.

17:20:43 UTC

RPMR TAF
General Santos International Airport
General Santos, Philippines
TAF RPMR 181100Z 1812/1912 16006KT 9999 FEW018 SCT250 TEMPO 1812/1818 20003KT FEW017CB SCT018 SCT080

Jun-18@
12:00 UTC

Jun-18 @ 12:00 UTC

Jun-19@
12:00 UTC

Jun-19 @ 12:00 UTC

TAF RPMR 181100Z 1812/1912 16006KT 9999 FEW018 SCT250
Wind
  • 160° at 6 KTS
Cloud Levels
  • Few at 1,800' AGL
  • Scattered at 25,000' AGL

Jun-18@
12:00 UTC

Jun-18 @ 12:00 UTC

Jun-18@
18:00 UTC

Jun-18 @ 18:00 UTC

TEMPO 1812/1818 20003KT FEW017CB SCT018 SCT080

Temporary

Temporary Changes expected for less than half the time period

Wind
  • 200° at 3 KTS
Cloud Levels
  • Few at 1,700' AGL
  • Scattered at 1,800' AGL
  • Scattered at 8,000' AGL